sensor_id;sensor_type;location;lat;lon;timestamp;pressure;altitude;pressure_sealevel;temperature;humidity
76024;BME280;64719;52.124;6.226;2023-06-14T00:00:50;101557.91;;;18.06;46.61
76024;BME280;64719;52.124;6.226;2023-06-14T00:03:18;101567.06;;;17.85;47.38
76024;BME280;64719;52.124;6.226;2023-06-14T00:05:47;101564.16;;;17.97;47.00
76024;BME280;64719;52.124;6.226;2023-06-14T00:08:14;101562.16;;;17.87;47.65
76024;BME280;64719;52.124;6.226;2023-06-14T00:10:42;101558.75;;;17.75;47.89
76024;BME280;64719;52.124;6.226;2023-06-14T00:13:09;101562.28;;;17.71;48.29
76024;BME280;64719;52.124;6.226;2023-06-14T00:15:36;101561.38;;;17.65;48.73
76024;BME280;64719;52.124;6.226;2023-06-14T00:18:03;101558.31;;;17.57;49.06
76024;BME280;64719;52.124;6.226;2023-06-14T00:20:32;101562.69;;;17.58;49.14
76024;BME280;64719;52.124;6.226;2023-06-14T00:22:58;101565.25;;;17.43;49.76
76024;BME280;64719;52.124;6.226;2023-06-14T00:25:25;101565.25;;;17.43;50.08
76024;BME280;64719;52.124;6.226;2023-06-14T00:27:54;101570.97;;;17.36;50.37
76024;BME280;64719;52.124;6.226;2023-06-14T00:30:21;101573.59;;;17.26;51.25
76024;BME280;64719;52.124;6.226;2023-06-14T00:32:47;101571.16;;;17.30;50.87
76024;BME280;64719;52.124;6.226;2023-06-14T00:35:15;101573.41;;;17.33;50.88
76024;BME280;64719;52.124;6.226;2023-06-14T00:37:41;101575.31;;;17.32;50.96
76024;BME280;64719;52.124;6.226;2023-06-14T00:40:08;101573.84;;;17.25;51.59
76024;BME280;64719;52.124;6.226;2023-06-14T00:42:35;101580.06;;;17.15;51.71
76024;BME280;64719;52.124;6.226;2023-06-14T00:45:03;101581.09;;;17.09;52.46
76024;BME280;64719;52.124;6.226;2023-06-14T00:47:30;101576.91;;;17.02;52.99
76024;BME280;64719;52.124;6.226;2023-06-14T00:49:57;101580.97;;;16.99;52.98
76024;BME280;64719;52.124;6.226;2023-06-14T00:52:25;101577.66;;;16.97;53.13
76024;BME280;64719;52.124;6.226;2023-06-14T00:54:51;101578.19;;;16.94;53.88
76024;BME280;64719;52.124;6.226;2023-06-14T00:57:19;101583.66;;;16.94;53.45
76024;BME280;64719;52.124;6.226;2023-06-14T00:59:47;101580.66;;;16.96;53.67
76024;BME280;64719;52.124;6.226;2023-06-14T01:02:15;101589.91;;;16.90;54.10
76024;BME280;64719;52.124;6.226;2023-06-14T01:04:45;101588.44;;;16.82;54.55
76024;BME280;64719;52.124;6.226;2023-06-14T01:07:20;101580.66;;;16.74;55.00
76024;BME280;64719;52.124;6.226;2023-06-14T01:09:58;101585.25;;;16.69;55.37
76024;BME280;64719;52.124;6.226;2023-06-14T01:12:35;101586.31;;;16.68;55.11
76024;BME280;64719;52.124;6.226;2023-06-14T01:15:04;101581.75;;;16.57;55.94
76024;BME280;64719;52.124;6.226;2023-06-14T01:17:32;101579.09;;;16.62;55.94
76024;BME280;64719;52.124;6.226;2023-06-14T01:20:01;101579.88;;;16.57;56.17
76024;BME280;64719;52.124;6.226;2023-06-14T01:22:28;101576.16;;;16.47;56.37
76024;BME280;64719;52.124;6.226;2023-06-14T01:24:56;101576.53;;;16.38;57.14
76024;BME280;64719;52.124;6.226;2023-06-14T01:27:23;101570.81;;;16.40;57.22
76024;BME280;64719;52.124;6.226;2023-06-14T01:29:54;101576.53;;;16.38;57.20
76024;BME280;64719;52.124;6.226;2023-06-14T01:32:22;101579.63;;;16.42;57.32
76024;BME280;64719;52.124;6.226;2023-06-14T01:34:49;101585.00;;;16.37;57.22
76024;BME280;64719;52.124;6.226;2023-06-14T01:37:16;101575.31;;;16.29;58.21
76024;BME280;64719;52.124;6.226;2023-06-14T01:39:44;101575.16;;;16.19;58.49
76024;BME280;64719;52.124;6.226;2023-06-14T01:42:13;101581.28;;;16.26;58.36
76024;BME280;64719;52.124;6.226;2023-06-14T01:44:42;101581.25;;;16.21;58.63
76024;BME280;64719;52.124;6.226;2023-06-14T01:47:09;101581.66;;;16.13;59.15
76024;BME280;64719;52.124;6.226;2023-06-14T01:49:36;101585.53;;;16.01;59.73
76024;BME280;64719;52.124;6.226;2023-06-14T01:52:03;101587.13;;;15.97;60.06
76024;BME280;64719;52.124;6.226;2023-06-14T01:54:29;101586.47;;;15.90;60.74
76024;BME280;64719;52.124;6.226;2023-06-14T01:56:56;101581.81;;;15.90;61.06
76024;BME280;64719;52.124;6.226;2023-06-14T01:59:24;101582.75;;;15.79;61.82
76024;BME280;64719;52.124;6.226;2023-06-14T02:01:50;101581.25;;;15.88;61.60
76024;BME280;64719;52.124;6.226;2023-06-14T02:04:17;101584.16;;;15.82;61.63
76024;BME280;64719;52.124;6.226;2023-06-14T02:06:43;101583.91;;;15.83;61.45
76024;BME280;64719;52.124;6.226;2023-06-14T02:09:10;101577.91;;;15.70;62.56
76024;BME280;64719;52.124;6.226;2023-06-14T02:11:36;101581.88;;;15.62;63.63
76024;BME280;64719;52.124;6.226;2023-06-14T02:14:03;101589.44;;;15.55;64.03
76024;BME280;64719;52.124;6.226;2023-06-14T02:16:31;101577.66;;;15.55;63.92
76024;BME280;64719;52.124;6.226;2023-06-14T02:19:01;101585.00;;;15.54;64.07
76024;BME280;64719;52.124;6.226;2023-06-14T02:21:27;101579.88;;;15.41;64.93
76024;BME280;64719;52.124;6.226;2023-06-14T02:23:53;101584.94;;;15.49;64.71
76024;BME280;64719;52.124;6.226;2023-06-14T02:26:20;101588.41;;;15.45;64.88
76024;BME280;64719;52.124;6.226;2023-06-14T02:28:47;101584.34;;;15.36;65.52
76024;BME280;64719;52.124;6.226;2023-06-14T02:31:14;101589.81;;;15.47;65.00
76024;BME280;64719;52.124;6.226;2023-06-14T02:33:42;101579.88;;;15.41;65.40
76024;BME280;64719;52.124;6.226;2023-06-14T02:36:09;101581.53;;;15.31;66.09
76024;BME280;64719;52.124;6.226;2023-06-14T02:38:35;101580.56;;;15.37;65.98
76024;BME280;64719;52.124;6.226;2023-06-14T02:41:03;101587.16;;;15.24;66.25
76024;BME280;64719;52.124;6.226;2023-06-14T02:43:31;101597.00;;;15.25;66.77
76024;BME280;64719;52.124;6.226;2023-06-14T02:45:57;101597.34;;;15.29;66.60
76024;BME280;64719;52.124;6.226;2023-06-14T02:48:24;101592.91;;;15.11;67.38
76024;BME280;64719;52.124;6.226;2023-06-14T02:50:52;101589.59;;;15.09;67.35
76024;BME280;64719;52.124;6.226;2023-06-14T02:53:18;101594.94;;;15.04;68.19
76024;BME280;64719;52.124;6.226;2023-06-14T02:55:45;101593.72;;;15.12;68.22
76024;BME280;64719;52.124;6.226;2023-06-14T02:58:12;101590.44;;;14.98;68.87
76024;BME280;64719;52.124;6.226;2023-06-14T03:00:38;101600.56;;;14.98;68.94
76024;BME280;64719;52.124;6.226;2023-06-14T03:03:06;101599.34;;;15.05;68.22
76024;BME280;64719;52.124;6.226;2023-06-14T03:05:37;101598.75;;;15.03;68.37
76024;BME280;64719;52.124;6.226;2023-06-14T03:08:07;101606.03;;;14.98;69.17
76024;BME280;64719;52.124;6.226;2023-06-14T03:10:34;101604.28;;;14.92;69.87
76024;BME280;64719;52.124;6.226;2023-06-14T03:13:01;101606.75;;;14.93;69.49
76024;BME280;64719;52.124;6.226;2023-06-14T03:15:27;101608.16;;;14.96;69.74
76024;BME280;64719;52.124;6.226;2023-06-14T03:17:54;101612.22;;;14.93;69.58
76024;BME280;64719;52.124;6.226;2023-06-14T03:20:21;101615.44;;;14.90;69.85
76024;BME280;64719;52.124;6.226;2023-06-14T03:22:47;101619.59;;;14.93;70.05
76024;BME280;64719;52.124;6.226;2023-06-14T03:25:15;101629.59;;;14.87;70.43
76024;BME280;64719;52.124;6.226;2023-06-14T03:27:42;101623.88;;;14.89;70.02
76024;BME280;64719;52.124;6.226;2023-06-14T03:30:09;101632.09;;;14.89;70.48
76024;BME280;64719;52.124;6.226;2023-06-14T03:32:36;101634.56;;;14.90;70.63
76024;BME280;64719;52.124;6.226;2023-06-14T03:35:03;101639.31;;;14.95;69.99
76024;BME280;64719;52.124;6.226;2023-06-14T03:37:29;101636.09;;;14.98;69.77
76024;BME280;64719;52.124;6.226;2023-06-14T03:39:56;101640.47;;;14.99;69.87
76024;BME280;64719;52.124;6.226;2023-06-14T03:42:24;101646.78;;;14.99;69.77
76024;BME280;64719;52.124;6.226;2023-06-14T03:44:50;101639.81;;;14.92;70.93
76024;BME280;64719;52.124;6.226;2023-06-14T03:47:17;101646.78;;;14.99;70.43
76024;BME280;64719;52.124;6.226;2023-06-14T03:49:43;101647.84;;;14.98;70.42
76024;BME280;64719;52.124;6.226;2023-06-14T03:52:10;101645.94;;;14.99;71.02
76024;BME280;64719;52.124;6.226;2023-06-14T03:54:36;101644.50;;;15.08;70.14
76024;BME280;64719;52.124;6.226;2023-06-14T03:57:03;101642.13;;;15.11;69.90
76024;BME280;64719;52.124;6.226;2023-06-14T03:59:31;101646.28;;;15.14;70.15
76024;BME280;64719;52.124;6.226;2023-06-14T04:01:58;101648.81;;;15.32;69.54
76024;BME280;64719;52.124;6.226;2023-06-14T04:04:24;101652.16;;;15.34;69.14
76024;BME280;64719;52.124;6.226;2023-06-14T04:06:54;101652.50;;;15.49;68.79
76024;BME280;64719;52.124;6.226;2023-06-14T04:09:20;101651.19;;;16.29;64.69
76024;BME280;64719;52.124;6.226;2023-06-14T04:11:47;101661.09;;;17.23;60.19
76024;BME280;64719;52.124;6.226;2023-06-14T04:14:13;101660.50;;;18.54;54.69
76024;BME280;64719;52.124;6.226;2023-06-14T04:16:41;101653.84;;;18.91;52.35
76024;BME280;64719;52.124;6.226;2023-06-14T04:19:07;101671.19;;;19.38;51.20
76024;BME280;64719;52.124;6.226;2023-06-14T04:21:34;101673.19;;;19.63;50.35
76024;BME280;64719;52.124;6.226;2023-06-14T04:24:02;101674.81;;;19.54;49.83
76024;BME280;64719;52.124;6.226;2023-06-14T04:26:28;101676.53;;;19.80;48.90
76024;BME280;64719;52.124;6.226;2023-06-14T04:28:58;101674.94;;;20.54;47.96
76024;BME280;64719;52.124;6.226;2023-06-14T04:31:27;101674.91;;;20.09;47.59
76024;BME280;64719;52.124;6.226;2023-06-14T04:33:55;101668.91;;;20.17;47.38
76024;BME280;64719;52.124;6.226;2023-06-14T04:36:22;101667.50;;;20.50;46.89
76024;BME280;64719;52.124;6.226;2023-06-14T04:38:49;101688.16;;;20.97;44.98
76024;BME280;64719;52.124;6.226;2023-06-14T04:41:19;101677.88;;;21.18;44.89
76024;BME280;64719;52.124;6.226;2023-06-14T04:43:45;101686.59;;;21.40;43.78
76024;BME280;64719;52.124;6.226;2023-06-14T04:46:13;101691.31;;;21.39;44.29
76024;BME280;64719;52.124;6.226;2023-06-14T04:48:40;101692.31;;;22.12;43.08
76024;BME280;64719;52.124;6.226;2023-06-14T04:51:09;101701.91;;;22.58;42.28
76024;BME280;64719;52.124;6.226;2023-06-14T04:53:35;101699.06;;;21.32;43.82
76024;BME280;64719;52.124;6.226;2023-06-14T04:56:03;101707.50;;;22.15;42.62
76024;BME280;64719;52.124;6.226;2023-06-14T04:58:30;101712.25;;;22.09;42.38
76024;BME280;64719;52.124;6.226;2023-06-14T05:00:57;101716.16;;;22.37;41.54
76024;BME280;64719;52.124;6.226;2023-06-14T05:03:24;101717.66;;;22.63;41.80
76024;BME280;64719;52.124;6.226;2023-06-14T05:05:52;101713.13;;;22.72;40.50
76024;BME280;64719;52.124;6.226;2023-06-14T05:08:20;101714.03;;;23.19;39.84
76024;BME280;64719;52.124;6.226;2023-06-14T05:10:48;101719.72;;;22.76;40.73
76024;BME280;64719;52.124;6.226;2023-06-14T05:13:14;101718.75;;;23.42;39.28
76024;BME280;64719;52.124;6.226;2023-06-14T05:15:41;101717.75;;;23.57;39.16
76024;BME280;64719;52.124;6.226;2023-06-14T05:18:08;101716.94;;;23.94;38.17
76024;BME280;64719;52.124;6.226;2023-06-14T05:20:35;101718.25;;;24.20;37.53
76024;BME280;64719;52.124;6.226;2023-06-14T05:23:02;101725.66;;;24.61;36.48
76024;BME280;64719;52.124;6.226;2023-06-14T05:25:30;101728.28;;;24.85;35.93
76024;BME280;64719;52.124;6.226;2023-06-14T05:27:57;101725.56;;;24.16;36.62
76024;BME280;64719;52.124;6.226;2023-06-14T05:30:23;101727.78;;;24.51;36.40
76024;BME280;64719;52.124;6.226;2023-06-14T05:32:50;101720.34;;;24.46;35.60
76024;BME280;64719;52.124;6.226;2023-06-14T05:35:18;101729.75;;;24.82;35.46
76024;BME280;64719;52.124;6.226;2023-06-14T05:37:44;101730.50;;;24.69;35.66
76024;BME280;64719;52.124;6.226;2023-06-14T05:40:11;101734.56;;;25.63;34.09
76024;BME280;64719;52.124;6.226;2023-06-14T05:42:39;101730.63;;;26.27;33.14
76024;BME280;64719;52.124;6.226;2023-06-14T05:45:06;101736.31;;;25.59;33.84
76024;BME280;64719;52.124;6.226;2023-06-14T05:47:33;101739.66;;;25.97;33.11
76024;BME280;64719;52.124;6.226;2023-06-14T05:50:00;101740.97;;;26.13;32.47
76024;BME280;64719;52.124;6.226;2023-06-14T05:52:26;101742.47;;;26.54;32.04
76024;BME280;64719;52.124;6.226;2023-06-14T05:54:53;101741.34;;;26.33;31.92
76024;BME280;64719;52.124;6.226;2023-06-14T05:57:19;101745.34;;;26.63;31.17
76024;BME280;64719;52.124;6.226;2023-06-14T05:59:47;101753.28;;;26.34;32.25
76024;BME280;64719;52.124;6.226;2023-06-14T06:02:14;101754.09;;;26.34;32.15
76024;BME280;64719;52.124;6.226;2023-06-14T06:04:40;101757.19;;;27.21;31.03
76024;BME280;64719;52.124;6.226;2023-06-14T06:07:07;101748.47;;;27.53;30.61
76024;BME280;64719;52.124;6.226;2023-06-14T06:09:33;101759.22;;;26.76;31.16
76024;BME280;64719;52.124;6.226;2023-06-14T06:12:00;101756.31;;;27.43;30.89
76024;BME280;64719;52.124;6.226;2023-06-14T06:14:26;101753.38;;;27.39;30.55
76024;BME280;64719;52.124;6.226;2023-06-14T06:16:54;101750.09;;;27.46;30.21
76024;BME280;64719;52.124;6.226;2023-06-14T06:19:21;101763.25;;;28.18;29.51
76024;BME280;64719;52.124;6.226;2023-06-14T06:21:47;101764.88;;;27.46;30.24
76024;BME280;64719;52.124;6.226;2023-06-14T06:24:14;101767.66;;;27.94;29.63
76024;BME280;64719;52.124;6.226;2023-06-14T06:26:40;101762.28;;;27.58;29.85
76024;BME280;64719;52.124;6.226;2023-06-14T06:29:07;101763.31;;;28.53;28.10
76024;BME280;64719;52.124;6.226;2023-06-14T06:31:33;101772.69;;;30.03;26.49
76024;BME280;64719;52.124;6.226;2023-06-14T06:34:02;101767.69;;;28.96;27.43
76024;BME280;64719;52.124;6.226;2023-06-14T06:36:29;101773.94;;;29.48;26.71
76024;BME280;64719;52.124;6.226;2023-06-14T06:38:55;101782.34;;;28.76;27.24
76024;BME280;64719;52.124;6.226;2023-06-14T06:41:22;101783.47;;;28.41;28.37
76024;BME280;64719;52.124;6.226;2023-06-14T06:43:48;101787.81;;;30.32;25.67
76024;BME280;64719;52.124;6.226;2023-06-14T06:46:15;101784.75;;;30.45;25.72
76024;BME280;64719;52.124;6.226;2023-06-14T06:48:43;101791.03;;;30.22;25.05
76024;BME280;64719;52.124;6.226;2023-06-14T06:51:11;101788.38;;;29.96;25.64
76024;BME280;64719;52.124;6.226;2023-06-14T06:53:38;101784.38;;;29.76;25.88
76024;BME280;64719;52.124;6.226;2023-06-14T06:56:04;101787.63;;;30.07;24.94
76024;BME280;64719;52.124;6.226;2023-06-14T06:58:31;101787.91;;;29.48;26.16
76024;BME280;64719;52.124;6.226;2023-06-14T07:00:57;101799.34;;;30.71;24.29
76024;BME280;64719;52.124;6.226;2023-06-14T07:03:24;101798.31;;;30.55;24.83
76024;BME280;64719;52.124;6.226;2023-06-14T07:05:50;101798.81;;;31.10;24.55
76024;BME280;64719;52.124;6.226;2023-06-14T07:08:18;101798.25;;;30.43;24.98
76024;BME280;64719;52.124;6.226;2023-06-14T07:10:45;101803.56;;;30.15;25.01
76024;BME280;64719;52.124;6.226;2023-06-14T07:13:11;101808.72;;;30.55;24.13
76024;BME280;64719;52.124;6.226;2023-06-14T07:15:39;101806.50;;;31.01;24.82
76024;BME280;64719;52.124;6.226;2023-06-14T07:18:05;101812.56;;;30.00;25.79
76024;BME280;64719;52.124;6.226;2023-06-14T07:20:32;101821.56;;;29.77;25.12
76024;BME280;64719;52.124;6.226;2023-06-14T07:22:58;101812.47;;;29.42;26.28
76024;BME280;64719;52.124;6.226;2023-06-14T07:25:26;101820.75;;;30.35;24.98
76024;BME280;64719;52.124;6.226;2023-06-14T07:27:53;101821.16;;;31.51;22.85
76024;BME280;64719;52.124;6.226;2023-06-14T07:30:20;101815.22;;;30.47;24.26
76024;BME280;64719;52.124;6.226;2023-06-14T07:32:51;101824.31;;;30.23;24.42
76024;BME280;64719;52.124;6.226;2023-06-14T07:35:17;101829.63;;;30.07;25.08
76024;BME280;64719;52.124;6.226;2023-06-14T07:37:44;101818.50;;;29.53;25.67
76024;BME280;64719;52.124;6.226;2023-06-14T07:40:13;101823.28;;;30.48;25.09
76024;BME280;64719;52.124;6.226;2023-06-14T07:42:41;101815.44;;;31.15;23.83
76024;BME280;64719;52.124;6.226;2023-06-14T07:45:08;101814.06;;;31.90;22.99
76024;BME280;64719;52.124;6.226;2023-06-14T07:47:35;101811.09;;;32.23;22.60
76024;BME280;64719;52.124;6.226;2023-06-14T07:50:02;101807.75;;;33.55;21.41
76024;BME280;64719;52.124;6.226;2023-06-14T07:52:29;101819.81;;;31.37;23.10
76024;BME280;64719;52.124;6.226;2023-06-14T07:54:56;101821.03;;;31.60;22.67
76024;BME280;64719;52.124;6.226;2023-06-14T07:57:23;101819.31;;;30.29;24.60
76024;BME280;64719;52.124;6.226;2023-06-14T07:59:51;101821.25;;;31.43;23.73
76024;BME280;64719;52.124;6.226;2023-06-14T08:02:17;101830.19;;;31.81;21.85
76024;BME280;64719;52.124;6.226;2023-06-14T08:04:44;101821.19;;;33.46;21.41
76024;BME280;64719;52.124;6.226;2023-06-14T08:07:11;101829.25;;;33.04;21.37
76024;BME280;64719;52.124;6.226;2023-06-14T08:09:38;101822.75;;;33.43;21.77
76024;BME280;64719;52.124;6.226;2023-06-14T08:12:06;101830.16;;;32.29;22.42
76024;BME280;64719;52.124;6.226;2023-06-14T08:14:35;101828.88;;;31.66;23.64
76024;BME280;64719;52.124;6.226;2023-06-14T08:17:03;101820.94;;;32.05;23.18
76024;BME280;64719;52.124;6.226;2023-06-14T08:19:30;101825.00;;;33.10;21.73
76024;BME280;64719;52.124;6.226;2023-06-14T08:21:56;101829.97;;;31.29;23.07
76024;BME280;64719;52.124;6.226;2023-06-14T08:24:23;101826.41;;;31.41;23.05
76024;BME280;64719;52.124;6.226;2023-06-14T08:26:50;101822.66;;;31.04;23.21
76024;BME280;64719;52.124;6.226;2023-06-14T08:29:17;101820.47;;;32.27;22.58
76024;BME280;64719;52.124;6.226;2023-06-14T08:31:43;101823.16;;;32.11;22.21
76024;BME280;64719;52.124;6.226;2023-06-14T08:34:11;101822.63;;;31.37;23.76
76024;BME280;64719;52.124;6.226;2023-06-14T08:36:37;101820.56;;;31.58;24.00
76024;BME280;64719;52.124;6.226;2023-06-14T08:39:04;101821.41;;;31.14;23.43
76024;BME280;64719;52.124;6.226;2023-06-14T08:41:31;101808.88;;;32.16;22.50
76024;BME280;64719;52.124;6.226;2023-06-14T08:43:58;101825.34;;;30.80;22.71
76024;BME280;64719;52.124;6.226;2023-06-14T08:46:26;101818.72;;;30.14;24.08
76024;BME280;64719;52.124;6.226;2023-06-14T08:48:55;101816.81;;;30.56;23.63
76024;BME280;64719;52.124;6.226;2023-06-14T08:51:25;101815.94;;;31.29;23.06
76024;BME280;64719;52.124;6.226;2023-06-14T08:53:53;101807.13;;;32.24;21.56
76024;BME280;64719;52.124;6.226;2023-06-14T08:56:24;101818.63;;;31.26;22.75
76024;BME280;64719;52.124;6.226;2023-06-14T08:58:53;101806.78;;;31.77;22.04
76024;BME280;64719;52.124;6.226;2023-06-14T09:01:19;101807.47;;;31.50;22.28
76024;BME280;64719;52.124;6.226;2023-06-14T09:03:47;101806.19;;;30.62;23.16
76024;BME280;64719;52.124;6.226;2023-06-14T09:06:14;101808.94;;;31.35;22.45
76024;BME280;64719;52.124;6.226;2023-06-14T09:08:43;101808.75;;;31.76;22.10
76024;BME280;64719;52.124;6.226;2023-06-14T09:11:11;101806.13;;;31.35;21.61
76024;BME280;64719;52.124;6.226;2023-06-14T09:13:38;101811.59;;;32.01;22.04
76024;BME280;64719;52.124;6.226;2023-06-14T09:16:05;101804.97;;;32.84;21.14
76024;BME280;64719;52.124;6.226;2023-06-14T09:18:36;101801.41;;;32.08;21.33
76024;BME280;64719;52.124;6.226;2023-06-14T09:21:05;101813.06;;;31.38;21.35
76024;BME280;64719;52.124;6.226;2023-06-14T09:23:33;101804.94;;;30.92;21.89
76024;BME280;64719;52.124;6.226;2023-06-14T09:26:06;101810.19;;;31.14;21.87
76024;BME280;64719;52.124;6.226;2023-06-14T09:28:33;101801.97;;;32.26;21.61
76024;BME280;64719;52.124;6.226;2023-06-14T09:31:00;101800.81;;;32.03;21.22
76024;BME280;64719;52.124;6.226;2023-06-14T09:33:26;101819.47;;;31.38;21.26
76024;BME280;64719;52.124;6.226;2023-06-14T09:35:54;101817.16;;;30.55;21.91
76024;BME280;64719;52.124;6.226;2023-06-14T09:38:20;101810.31;;;30.14;22.20
76024;BME280;64719;52.124;6.226;2023-06-14T09:40:47;101813.16;;;31.41;21.76
76024;BME280;64719;52.124;6.226;2023-06-14T09:43:15;101813.22;;;32.02;20.38
76024;BME280;64719;52.124;6.226;2023-06-14T09:45:42;101822.06;;;30.58;21.87
76024;BME280;64719;52.124;6.226;2023-06-14T09:48:11;101815.19;;;31.20;21.58
76024;BME280;64719;52.124;6.226;2023-06-14T09:50:44;101817.97;;;31.29;21.43
76024;BME280;64719;52.124;6.226;2023-06-14T09:53:11;101827.38;;;30.92;20.99
76024;BME280;64719;52.124;6.226;2023-06-14T09:55:40;101823.41;;;30.31;21.64
76024;BME280;64719;52.124;6.226;2023-06-14T09:58:09;101816.03;;;29.68;22.25
76024;BME280;64719;52.124;6.226;2023-06-14T10:00:39;101817.03;;;30.22;21.92
76024;BME280;64719;52.124;6.226;2023-06-14T10:03:11;101836.63;;;29.64;22.42
76024;BME280;64719;52.124;6.226;2023-06-14T10:05:39;101831.78;;;30.81;21.70
76024;BME280;64719;52.124;6.226;2023-06-14T10:08:08;101829.56;;;30.25;22.65
76024;BME280;64719;52.124;6.226;2023-06-14T10:10:39;101819.81;;;30.31;21.92
76024;BME280;64719;52.124;6.226;2023-06-14T10:13:06;101827.59;;;29.87;22.68
76024;BME280;64719;52.124;6.226;2023-06-14T10:15:41;101837.72;;;30.59;22.81
76024;BME280;64719;52.124;6.226;2023-06-14T10:18:17;101831.22;;;29.88;22.28
76024;BME280;64719;52.124;6.226;2023-06-14T10:20:53;101814.94;;;29.44;23.07
76024;BME280;64719;52.124;6.226;2023-06-14T10:23:23;101828.88;;;29.98;22.78
76024;BME280;64719;52.124;6.226;2023-06-14T10:25:54;101822.31;;;30.24;22.73
76024;BME280;64719;52.124;6.226;2023-06-14T10:28:22;101814.19;;;30.92;22.64
76024;BME280;64719;52.124;6.226;2023-06-14T10:31:03;101822.22;;;31.26;21.41
76024;BME280;64719;52.124;6.226;2023-06-14T10:33:30;101814.72;;;30.45;22.83
76024;BME280;64719;52.124;6.226;2023-06-14T10:36:24;101817.06;;;32.45;21.16
76024;BME280;64719;52.124;6.226;2023-06-14T10:39:00;101815.06;;;32.22;21.12
76024;BME280;64719;52.124;6.226;2023-06-14T10:41:28;101819.53;;;31.87;21.79
76024;BME280;64719;52.124;6.226;2023-06-14T10:46:58;101819.03;;;30.42;22.92
76024;BME280;64719;52.124;6.226;2023-06-14T10:49:37;101816.72;;;30.65;21.69
76024;BME280;64719;52.124;6.226;2023-06-14T10:52:08;101821.72;;;30.59;21.31
76024;BME280;64719;52.124;6.226;2023-06-14T10:54:37;101825.53;;;30.34;22.46
76024;BME280;64719;52.124;6.226;2023-06-14T10:57:06;101819.94;;;29.76;23.53
76024;BME280;64719;52.124;6.226;2023-06-14T10:59:33;101818.69;;;30.23;22.39
76024;BME280;64719;52.124;6.226;2023-06-14T11:02:23;101821.16;;;30.45;22.97
76024;BME280;64719;52.124;6.226;2023-06-14T11:04:53;101814.06;;;30.68;21.86
76024;BME280;64719;52.124;6.226;2023-06-14T11:07:34;101802.78;;;30.56;22.42
76024;BME280;64719;52.124;6.226;2023-06-14T11:10:10;101822.44;;;31.09;22.48
76024;BME280;64719;52.124;6.226;2023-06-14T11:12:45;101813.75;;;31.02;22.83
76024;BME280;64719;52.124;6.226;2023-06-14T11:15:13;101816.59;;;30.41;23.31
76024;BME280;64719;52.124;6.226;2023-06-14T11:17:49;101804.91;;;29.43;24.28
76024;BME280;64719;52.124;6.226;2023-06-14T11:20:18;101817.91;;;29.85;24.80
76024;BME280;64719;52.124;6.226;2023-06-14T11:22:47;101812.16;;;30.10;23.98
76024;BME280;64719;52.124;6.226;2023-06-14T11:25:14;101820.47;;;30.48;23.37
76024;BME280;64719;52.124;6.226;2023-06-14T11:27:41;101810.28;;;31.17;22.75
76024;BME280;64719;52.124;6.226;2023-06-14T11:30:10;101825.69;;;30.79;23.31
76024;BME280;64719;52.124;6.226;2023-06-14T11:32:36;101814.59;;;29.54;24.43
76024;BME280;64719;52.124;6.226;2023-06-14T11:35:06;101812.97;;;31.14;24.08
76024;BME280;64719;52.124;6.226;2023-06-14T11:37:33;101815.88;;;29.94;24.65
76024;BME280;64719;52.124;6.226;2023-06-14T11:40:00;101813.34;;;31.12;23.01
76024;BME280;64719;52.124;6.226;2023-06-14T11:42:28;101804.97;;;30.01;24.01
76024;BME280;64719;52.124;6.226;2023-06-14T11:44:55;101801.75;;;30.61;23.27
76024;BME280;64719;52.124;6.226;2023-06-14T11:47:22;101800.22;;;31.61;22.87
76024;BME280;64719;52.124;6.226;2023-06-14T11:49:48;101795.16;;;32.27;22.36
76024;BME280;64719;52.124;6.226;2023-06-14T11:52:18;101794.97;;;32.20;22.13
76024;BME280;64719;52.124;6.226;2023-06-14T11:54:47;101811.56;;;31.08;22.76
76024;BME280;64719;52.124;6.226;2023-06-14T11:57:14;101803.25;;;30.08;23.90
76024;BME280;64719;52.124;6.226;2023-06-14T11:59:40;101803.25;;;31.44;22.21
76024;BME280;64719;52.124;6.226;2023-06-14T12:02:09;101804.22;;;32.08;22.16
76024;BME280;64719;52.124;6.226;2023-06-14T12:04:36;101817.16;;;31.08;22.24
76024;BME280;64719;52.124;6.226;2023-06-14T12:07:08;101802.31;;;30.54;24.15
76024;BME280;64719;52.124;6.226;2023-06-14T12:09:41;101806.50;;;31.46;22.07
76024;BME280;64719;52.124;6.226;2023-06-14T12:12:09;101803.25;;;32.40;21.18
76024;BME280;64719;52.124;6.226;2023-06-14T12:14:36;101806.97;;;31.36;21.70
76024;BME280;64719;52.124;6.226;2023-06-14T12:17:06;101796.00;;;32.03;21.07
76024;BME280;64719;52.124;6.226;2023-06-14T12:19:33;101801.56;;;30.86;22.21
76024;BME280;64719;52.124;6.226;2023-06-14T12:22:09;101806.25;;;30.74;21.61
76024;BME280;64719;52.124;6.226;2023-06-14T12:24:36;101792.59;;;30.52;21.97
76024;BME280;64719;52.124;6.226;2023-06-14T12:27:05;101817.63;;;31.42;21.70
76024;BME280;64719;52.124;6.226;2023-06-14T12:29:32;101808.78;;;30.67;21.04
76024;BME280;64719;52.124;6.226;2023-06-14T12:31:58;101803.94;;;31.08;21.81
76024;BME280;64719;52.124;6.226;2023-06-14T12:34:25;101810.41;;;30.27;21.91
76024;BME280;64719;52.124;6.226;2023-06-14T12:36:52;101809.25;;;30.69;23.13
76024;BME280;64719;52.124;6.226;2023-06-14T12:39:19;101797.75;;;31.03;22.05
76024;BME280;64719;52.124;6.226;2023-06-14T12:41:46;101806.47;;;30.48;22.73
76024;BME280;64719;52.124;6.226;2023-06-14T12:44:15;101793.28;;;31.34;21.61
76024;BME280;64719;52.124;6.226;2023-06-14T12:46:42;101792.75;;;31.77;21.24
76024;BME280;64719;52.124;6.226;2023-06-14T12:49:09;101796.56;;;31.36;22.38
76024;BME280;64719;52.124;6.226;2023-06-14T12:51:35;101790.72;;;30.97;22.74
76024;BME280;64719;52.124;6.226;2023-06-14T12:54:02;101793.88;;;30.95;22.56
76024;BME280;64719;52.124;6.226;2023-06-14T12:56:29;101792.41;;;31.22;22.76